Time;durP1;ratioP1;P1;durP2;ratioP2;P2;SDS_P1;SDS_P2;PMS_P1;PMS_P2;Temp;Humidity;BMP_temperature;BMP_pressure;BME280_temperature;BME280_humidity;BME280_pressure;Samples;Min_cycle;Max_cycle;Signal;HPM_P1;HPM_P2
2022/06/25 00:01:00;;;;;;;5.08;4.08;;;;;;;19.19;53.50;98518.30;2194935;81;21373;-76
2022/06/25 00:04:00;;;;;;;4.85;3.72;;;;;;;19.15;53.66;98517.52;2194870;81;21308;-76
2022/06/25 00:07:00;;;;;;;7.28;4.65;;;;;;;19.09;53.67;98510.62;2194741;81;20942;-76
2022/06/25 00:10:01;;;;;;;7.08;4.08;;;;;;;19.06;53.75;98517.75;2195012;81;20968;-76
2022/06/25 00:13:01;;;;;;;6.78;4.35;;;;;;;19.05;53.95;98516.02;2194770;81;21408;-75
2022/06/25 00:16:02;;;;;;;4.90;3.72;;;;;;;19.01;54.10;98512.58;2194875;81;20937;-75
2022/06/25 00:19:02;;;;;;;5.05;4.28;;;;;;;18.97;54.07;98510.93;2194789;81;21021;-75
2022/06/25 00:22:02;;;;;;;6.90;4.03;;;;;;;18.93;54.18;98510.60;2194928;81;21309;-75
2022/06/25 00:25:03;;;;;;;6.42;4.37;;;;;;;18.89;54.47;98503.66;2194963;81;20989;-76
2022/06/25 00:28:03;;;;;;;5.25;3.98;;;;;;;18.86;54.57;98501.09;2194848;81;20993;-75
2022/06/25 00:31:04;;;;;;;9.63;4.15;;;;;;;18.84;54.44;98499.41;2194698;81;20960;-75
2022/06/25 00:34:04;;;;;;;6.60;4.22;;;;;;;18.81;54.54;98497.70;2194847;81;20996;-75
2022/06/25 00:37:04;;;;;;;5.30;4.25;;;;;;;18.79;54.64;98491.59;2194975;81;20933;-75
2022/06/25 00:40:05;;;;;;;7.03;4.22;;;;;;;18.78;54.74;98500.44;2194727;81;20941;-76
2022/06/25 00:43:05;;;;;;;7.55;4.25;;;;;;;18.76;54.66;98495.64;2194617;81;21008;-75
2022/06/25 00:46:06;;;;;;;5.95;4.00;;;;;;;18.73;54.75;98489.98;2194901;81;20893;-75
2022/06/25 00:49:06;;;;;;;7.72;4.33;;;;;;;18.71;54.87;98495.77;2195035;81;20992;-75
2022/06/25 00:52:06;;;;;;;9.15;4.53;;;;;;;18.70;55.13;98489.20;2194903;81;21345;-75
2022/06/25 00:55:07;;;;;;;8.70;4.62;;;;;;;18.68;55.00;98489.69;2194902;81;20975;-76
2022/06/25 00:58:07;;;;;;;5.50;4.53;;;;;;;18.66;55.05;98494.15;2195283;81;20968;-79
2022/06/25 01:01:11;;;;;;;7.10;4.58;;;;;;;18.65;55.36;98497.25;2195484;81;20953;-80
2022/06/25 01:04:11;;;;;;;8.85;4.37;;;;;;;18.62;55.32;98497.78;2195697;81;20953;-80
2022/06/25 01:07:12;;;;;;;5.85;4.40;;;;;;;18.56;55.27;98487.33;2195399;81;20922;-79
2022/06/25 01:10:13;;;;;;;618.30;57.65;;;;;;;18.52;55.38;98484.35;2195764;81;21307;-82
2022/06/25 01:13:13;;;;;;;11.00;4.67;;;;;;;18.49;55.84;98487.95;2195368;81;20925;-80
2022/06/25 01:16:13;;;;;;;4.62;4.22;;;;;;;18.51;55.56;98495.83;2195467;81;20985;-80
2022/06/25 01:19:14;;;;;;;4.58;4.12;;;;;;;18.46;55.67;98498.14;2195834;81;21337;-80
2022/06/25 01:22:14;;;;;;;20.35;5.33;;;;;;;18.43;55.62;98496.89;2195459;81;20957;-80
2022/06/25 01:25:15;;;;;;;8.53;4.33;;;;;;;18.41;55.68;98501.80;2195799;81;20984;-80
2022/06/25 01:28:15;;;;;;;5.75;4.03;;;;;;;18.36;55.82;98492.67;2195878;81;20960;-79
2022/06/25 01:31:15;;;;;;;4.70;4.20;;;;;;;18.32;56.09;98497.62;2195434;81;21360;-80
2022/06/25 01:34:15;;;;;;;7.03;4.40;;;;;;;18.30;56.08;98493.28;2195021;81;20953;-81
2022/06/25 01:37:16;;;;;;;10.63;4.22;;;;;;;18.28;56.07;98498.59;2195516;81;20972;-81
2022/06/25 01:40:16;;;;;;;8.50;4.15;;;;;;;18.25;56.10;98492.52;2195984;81;20929;-82
2022/06/25 01:43:17;;;;;;;4.85;3.77;;;;;;;18.21;56.24;98492.18;2196030;81;20921;-82
2022/06/25 01:46:17;;;;;;;12.65;5.05;;;;;;;18.19;56.33;98496.15;2196167;81;20969;-80
2022/06/25 01:49:17;;;;;;;11.57;4.60;;;;;;;18.16;56.40;98490.94;2195620;81;20984;-79
2022/06/25 01:52:18;;;;;;;5.35;4.85;;;;;;;18.11;56.54;98495.47;2195648;81;20961;-80
2022/06/25 01:55:18;;;;;;;8.25;4.67;;;;;;;18.05;56.89;98494.29;2195581;81;20961;-80
2022/06/25 01:58:19;;;;;;;7.33;4.47;;;;;;;17.99;57.11;98491.80;2195941;81;20941;-81
2022/06/25 02:01:19;;;;;;;5.00;4.10;;;;;;;17.93;57.28;98497.22;2195890;81;20944;-84
2022/06/25 02:04:20;;;;;;;5.95;4.72;;;;;;;18.02;62.49;98495.23;2195864;81;20957;-84
2022/06/25 02:07:20;;;;;;;6.92;5.05;;;;;;;19.01;61.08;98495.39;2195518;81;20936;-85
2022/06/25 02:10:20;;;;;;;7.20;4.87;;;;;;;19.64;58.50;98495.83;2195178;81;20985;-83
2022/06/25 02:13:21;;;;;;;7.33;4.70;;;;;;;19.79;56.73;98495.82;2195638;81;20949;-84
2022/06/25 02:16:21;;;;;;;4.90;4.45;;;;;;;19.84;56.06;98493.90;2196363;81;20992;-84
2022/06/25 02:19:22;;;;;;;7.83;4.75;;;;;;;19.84;57.14;98502.30;2196884;81;21008;-85
2022/06/25 02:22:22;;;;;;;5.00;4.17;;;;;;;19.83;56.51;98503.22;2198941;81;20972;-84
2022/06/25 02:25:22;;;;;;;17.52;5.20;;;;;;;19.73;55.38;98507.92;2198937;81;20937;-83
2022/06/25 02:28:23;;;;;;;4.97;4.50;;;;;;;19.72;56.00;98516.33;2198873;81;21376;-84
2022/06/25 02:31:23;;;;;;;6.90;4.40;;;;;;;19.86;55.61;98509.74;2198645;81;21008;-84
2022/06/25 02:34:24;;;;;;;12.07;4.60;;;;;;;19.94;55.88;98513.92;2198800;81;20925;-85
2022/06/25 02:37:24;;;;;;;12.25;5.03;;;;;;;19.93;55.49;98507.31;2198980;81;20949;-85
2022/06/25 02:40:24;;;;;;;5.37;4.85;;;;;;;19.92;54.87;98506.91;2198696;81;21290;-84
2022/06/25 02:43:25;;;;;;;9.33;4.03;;;;;;;19.87;55.38;98503.53;2199009;81;20910;-85
2022/06/25 02:46:26;;;;;;;8.78;4.47;;;;;;;19.87;55.00;98512.80;2199008;81;20910;-85
2022/06/25 02:49:26;;;;;;;5.15;4.65;;;;;;;19.91;54.87;98506.49;2198902;80;21051;-85
2022/06/25 02:52:26;;;;;;;4.67;4.28;;;;;;;19.98;55.12;98514.69;2198929;81;21309;-85
2022/06/25 02:58:54;;;;;;;5.12;4.60;;;;;;;20.04;54.04;98518.02;2198791;81;20941;-84
2022/06/25 03:01:55;;;;;;;7.78;4.62;;;;;;;19.96;55.28;98518.72;2198940;80;20996;-85
2022/06/25 03:04:55;;;;;;;5.42;3.90;;;;;;;20.08;54.99;98517.92;2198739;81;20984;-85
2022/06/25 03:07:55;;;;;;;8.08;4.90;;;;;;;20.21;53.89;98517.48;2198479;81;20905;-83
2022/06/25 03:10:56;;;;;;;7.15;4.70;;;;;;;20.06;54.44;98511.80;2198425;81;21016;-85
2022/06/25 03:13:56;;;;;;;6.80;4.30;;;;;;;20.05;54.28;98510.94;2198712;81;20909;-83
2022/06/25 03:16:57;;;;;;;11.53;4.53;;;;;;;20.16;54.17;98507.48;2199003;81;20925;-84
2022/06/25 03:19:57;;;;;;;5.87;4.37;;;;;;;20.13;53.92;98508.05;2198629;81;20996;-84
2022/06/25 03:22:57;;;;;;;4.72;4.28;;;;;;;20.15;54.39;98507.53;2198660;81;20973;-84
2022/06/25 03:25:58;;;;;;;6.83;4.08;;;;;;;20.28;54.28;98517.69;2198844;81;20992;-84
2022/06/25 03:28:59;;;;;;;8.25;4.30;;;;;;;20.53;54.45;98518.24;2198597;81;20921;-85
2022/06/25 03:31:59;;;;;;;9.23;4.30;;;;;;;20.68;53.61;98515.94;2198908;81;20980;-82
2022/06/25 03:34:59;;;;;;;9.60;5.55;;;;;;;20.81;52.55;98523.52;2198245;81;21325;-84
2022/06/25 03:37:59;;;;;;;10.80;5.05;;;;;;;21.01;53.54;98521.48;2198569;81;20934;-83
2022/06/25 03:44:21;;;;;;;6.78;4.62;;;;;;;20.92;52.66;98522.67;2197202;81;20905;-79
2022/06/25 03:47:21;;;;;;;8.43;4.80;;;;;;;20.92;52.35;98529.31;2197370;81;20945;-83
2022/06/25 03:50:21;;;;;;;8.45;4.58;;;;;;;20.91;52.60;98528.44;2197607;81;21353;-83
2022/06/25 03:53:22;;;;;;;4.80;3.90;;;;;;;20.97;52.43;98529.55;2197087;81;21321;-84
2022/06/25 03:56:22;;;;;;;25.15;5.62;;;;;;;21.11;52.64;98533.51;2196898;81;20986;-82
2022/06/25 03:59:23;;;;;;;9.28;4.30;;;;;;;21.36;53.21;98539.70;2197005;81;20961;-83
2022/06/25 04:02:23;;;;;;;7.25;3.83;;;;;;;21.90;50.62;98533.27;2196850;81;20972;-84
2022/06/25 04:05:24;;;;;;;91.15;10.85;;;;;;;22.01;50.43;98535.51;2198212;81;20901;-82
2022/06/25 04:08:24;;;;;;;77.78;9.23;;;;;;;22.10;49.92;98544.02;2198601;80;21372;-83
2022/06/25 04:11:24;;;;;;;31.40;7.28;;;;;;;22.34;49.23;98547.95;2197785;81;21299;-82
2022/06/25 04:14:25;;;;;;;57.75;8.98;;;;;;;22.25;49.00;98545.20;2197549;81;20948;-83
2022/06/25 04:17:26;;;;;;;35.73;6.95;;;;;;;22.16;49.85;98551.75;2197921;81;20988;-84
2022/06/25 04:20:26;;;;;;;479.80;47.25;;;;;;;22.11;49.48;98547.55;2204334;81;21027;-86
2022/06/25 04:23:26;;;;;;;26.15;6.50;;;;;;;22.25;50.03;98543.41;2210363;81;21296;-83
2022/06/25 04:26:26;;;;;;;26.73;6.10;;;;;;;22.65;49.11;98548.47;2210399;81;21027;-83
2022/06/25 04:29:27;;;;;;;35.68;5.95;;;;;;;22.55;48.63;98548.44;2209927;81;21000;-82
2022/06/25 04:32:27;;;;;;;59.18;7.95;;;;;;;22.64;48.43;98542.74;2209733;81;21403;-82
2022/06/25 04:35:28;;;;;;;17.85;5.47;;;;;;;22.50;48.28;98547.73;2210110;81;20964;-82
2022/06/25 04:38:28;;;;;;;21.87;5.42;;;;;;;22.32;48.63;98549.34;2210112;81;20953;-83
2022/06/25 04:41:28;;;;;;;23.52;6.35;;;;;;;22.31;48.82;98550.73;2210781;81;21029;-83
2022/06/25 04:44:29;;;;;;;23.07;5.65;;;;;;;22.47;48.86;98554.05;2210554;81;20940;-84
2022/06/25 04:47:29;;;;;;;12.98;4.72;;;;;;;22.79;48.70;98553.20;2210945;81;20928;-83
2022/06/25 04:50:30;;;;;;;11.45;5.17;;;;;;;23.04;48.21;98550.40;2210709;81;21777;-83
2022/06/25 04:53:30;;;;;;;137.60;16.32;;;;;;;23.35;47.85;98548.13;2211029;81;20972;-83
2022/06/25 04:56:31;;;;;;;10.43;4.60;;;;;;;23.60;47.91;98545.28;2211179;80;20933;-84
2022/06/25 04:59:31;;;;;;;49.20;9.00;;;;;;;23.88;47.06;98547.55;2210587;81;21334;-81
2022/06/25 05:02:31;;;;;;;23.02;5.55;;;;;;;23.98;46.98;98548.84;2210696;81;21028;-84
2022/06/25 05:05:32;;;;;;;12.28;4.35;;;;;;;24.19;45.62;98558.09;2210610;81;20929;-85
2022/06/25 05:08:33;;;;;;;11.28;4.53;;;;;;;24.11;46.11;98552.66;2209756;81;21356;-83
2022/06/25 05:11:32;;;;;;;9.00;4.12;;;;;;;24.40;45.32;98552.66;2209062;81;20968;-83
2022/06/25 05:14:33;;;;;;;32.23;6.70;;;;;;;24.32;44.96;98553.96;2210826;81;20936;-82
2022/06/25 05:17:33;;;;;;;9.38;4.28;;;;;;;24.22;46.75;98542.81;2211418;81;20972;-83
2022/06/25 05:20:34;;;;;;;8.35;4.50;;;;;;;24.53;46.52;98550.72;2210962;80;21692;-84
2022/06/25 05:23:34;;;;;;;6.90;3.85;;;;;;;24.77;45.60;98547.69;2210568;81;20944;-83
2022/06/25 05:26:34;;;;;;;15.90;4.28;;;;;;;24.74;44.57;98549.18;2210087;81;21392;-82
2022/06/25 05:29:35;;;;;;;8.23;3.70;;;;;;;24.67;44.82;98553.09;2210639;81;20941;-81
2022/06/25 05:32:35;;;;;;;9.08;3.90;;;;;;;24.77;45.36;98550.36;2210827;81;21027;-81
2022/06/25 05:35:36;;;;;;;11.48;4.90;;;;;;;24.81;44.65;98555.55;2211136;81;20936;-82
2022/06/25 05:38:36;;;;;;;8.10;4.47;;;;;;;25.03;44.53;98554.88;2209614;81;20960;-83
2022/06/25 05:41:36;;;;;;;4.75;4.25;;;;;;;25.11;44.76;98555.34;2209777;81;20913;-82
2022/06/25 05:44:37;;;;;;;4.65;4.10;;;;;;;25.29;43.82;98558.43;2210273;81;20996;-84
2022/06/25 05:47:37;;;;;;;22.50;5.42;;;;;;;25.27;43.21;98553.64;2209508;81;20968;-82
2022/06/25 05:50:38;;;;;;;103.87;11.43;;;;;;;25.22;43.01;98554.35;2209619;81;20987;-82
2022/06/25 05:53:38;;;;;;;8.60;4.35;;;;;;;25.13;42.39;98547.26;2210542;80;21004;-81
2022/06/25 05:56:39;;;;;;;8.13;4.10;;;;;;;25.00;42.78;98557.23;2210514;81;20941;-82
2022/06/25 05:59:39;;;;;;;10.95;6.90;;;;;;;24.96;42.83;98561.44;2210115;81;20972;-81
2022/06/25 06:02:40;;;;;;;9.40;5.20;;;;;;;24.99;41.78;98559.52;2209909;81;21342;-83
2022/06/25 06:05:40;;;;;;;20.62;5.95;;;;;;;25.00;42.56;98559.05;2211342;81;20972;-81
2022/06/25 06:08:40;;;;;;;8.60;4.83;;;;;;;25.06;41.26;98558.73;2211826;81;20973;-83
2022/06/25 06:11:41;;;;;;;22.60;5.30;;;;;;;25.03;42.56;98565.56;2211434;81;21011;-83
2022/06/25 06:14:41;;;;;;;5.33;4.50;;;;;;;25.01;41.22;98562.97;2212173;81;20924;-84
2022/06/25 06:17:44;;;;;;;7.97;4.20;;;;;;;24.96;42.46;98561.44;2212097;81;20976;-83
2022/06/25 06:20:44;;;;;;;19.40;5.17;;;;;;;25.03;42.43;98557.55;2212066;80;21035;-84
2022/06/25 06:23:45;;;;;;;7.58;3.83;;;;;;;25.28;42.16;98560.71;2211467;81;20904;-84
2022/06/25 06:26:45;;;;;;;7.67;4.00;;;;;;;25.53;41.71;98555.41;2211287;81;21411;-84
2022/06/25 06:29:46;;;;;;;8.33;4.10;;;;;;;25.76;42.26;98555.06;2211102;81;21000;-84
2022/06/25 06:32:46;;;;;;;16.67;4.12;;;;;;;26.15;41.81;98556.52;2210714;81;20956;-83
2022/06/25 06:35:46;;;;;;;8.83;4.25;;;;;;;26.33;41.12;98563.08;2211113;81;20901;-83
2022/06/25 06:38:47;;;;;;;17.90;5.50;;;;;;;26.47;41.28;98561.42;2211125;81;21355;-80
2022/06/25 06:41:47;;;;;;;5.92;3.70;;;;;;;26.62;38.77;98569.44;2211036;81;20948;-84
2022/06/25 06:44:48;;;;;;;4.53;4.10;;;;;;;26.66;40.48;98562.95;2211574;81;20941;-84
2022/06/25 06:47:50;;;;;;;6.22;3.85;;;;;;;26.78;40.69;98570.75;2211573;81;20944;-83
2022/06/25 06:50:51;;;;;;;5.00;3.90;;;;;;;27.12;41.03;98568.34;2210731;81;21011;-84
2022/06/25 06:53:51;;;;;;;6.20;3.85;;;;;;;27.40;40.18;98575.59;2211306;81;20917;-83
2022/06/25 06:56:53;;;;;;;4.00;3.37;;;;;;;27.55;40.34;98574.65;2210618;81;20960;-82
2022/06/25 06:59:52;;;;;;;8.45;4.10;;;;;;;27.65;39.93;98575.45;2211710;81;20936;-82
2022/06/25 07:02:53;;;;;;;18.50;4.95;;;;;;;27.62;39.76;98576.51;2211527;81;20916;-85
2022/06/25 07:05:54;;;;;;;13.60;6.17;;;;;;;27.66;39.93;98578.04;2210878;81;20925;-83
2022/06/25 07:08:54;;;;;;;10.93;4.35;;;;;;;27.76;42.54;98578.36;2211388;81;20991;-82
2022/06/25 07:11:54;;;;;;;10.55;4.00;;;;;;;27.98;40.03;98577.88;2211096;81;21352;-84
2022/06/25 07:14:55;;;;;;;6.15;4.50;;;;;;;28.15;39.86;98579.88;2210075;81;20980;-82
2022/06/25 07:17:55;;;;;;;4.10;3.70;;;;;;;28.27;37.99;98574.71;2211284;81;20938;-83
2022/06/25 07:20:56;;;;;;;5.72;3.60;;;;;;;28.22;37.28;98577.66;2210807;81;21107;-82
2022/06/25 07:23:56;;;;;;;6.05;3.30;;;;;;;28.28;37.32;98577.30;2211367;81;20949;-82
2022/06/25 07:27:01;;;;;;;5.85;3.72;;;;;;;28.32;37.30;98578.83;2211190;81;20936;-83
2022/06/25 07:30:01;;;;;;;4.37;3.83;;;;;;;28.38;37.58;98581.11;2211346;81;20925;-82
2022/06/25 07:33:02;;;;;;;5.70;3.55;;;;;;;28.54;36.90;98575.13;2211076;81;20960;-82
2022/06/25 07:36:02;;;;;;;7.70;3.90;;;;;;;28.65;36.52;98577.61;2210281;81;20933;-83
2022/06/25 07:39:04;;;;;;;4.83;3.42;;;;;;;28.77;36.33;98572.30;2210529;81;20960;-82
2022/06/25 07:42:03;;;;;;;7.92;3.72;;;;;;;28.93;36.20;98573.50;2211348;81;20960;-81
2022/06/25 07:45:03;;;;;;;5.65;3.60;;;;;;;29.07;36.46;98581.98;2210484;81;20940;-82
2022/06/25 07:48:04;;;;;;;5.15;3.77;;;;;;;29.17;35.77;98579.91;2210434;81;21458;-83
2022/06/25 07:54:23;;;;;;;4.17;3.02;;;;;;;29.35;34.59;98575.58;2210318;81;21357;-83
2022/06/25 07:57:23;;;;;;;4.12;2.65;;;;;;;29.39;35.38;98586.50;2210025;81;21004;-81
2022/06/25 08:03:46;;;;;;;5.55;3.15;;;;;;;29.71;34.64;98576.25;2349034;75;23100;-81
2022/06/25 08:06:47;;;;;;;6.62;3.10;;;;;;;29.88;34.48;98588.52;2317349;77;20959;-84
2022/06/25 08:09:47;;;;;;;9.05;3.25;;;;;;;30.09;34.88;98584.32;2316758;77;20984;-82
2022/06/25 08:12:47;;;;;;;5.08;3.27;;;;;;;30.30;34.00;98576.52;2316217;77;20911;-83
2022/06/25 08:15:48;;;;;;;9.28;4.05;;;;;;;30.46;34.13;98584.37;2316373;77;21291;-82
2022/06/25 08:18:48;;;;;;;3.92;2.85;;;;;;;30.59;33.25;98584.73;2316547;77;20907;-83
2022/06/25 08:21:49;;;;;;;6.53;3.05;;;;;;;30.69;32.55;98587.60;2316065;77;20954;-84
2022/06/25 08:24:50;;;;;;;5.67;2.83;;;;;;;30.83;32.53;98594.66;2316183;77;21264;-82
2022/06/25 08:27:50;;;;;;;4.85;3.22;;;;;;;30.92;32.43;98591.27;2316148;77;20923;-84
2022/06/25 08:30:50;;;;;;;4.05;3.30;;;;;;;31.13;31.91;98592.34;2316218;77;20931;-82
2022/06/25 08:33:51;;;;;;;5.17;3.05;;;;;;;31.19;31.61;98593.74;2317324;77;20978;-82
2022/06/25 08:36:51;;;;;;;5.10;3.00;;;;;;;31.08;31.48;98597.70;2317109;77;20958;-83
2022/06/25 08:39:52;;;;;;;3.17;2.87;;;;;;;30.90;31.41;98596.78;2317384;77;20926;-81
2022/06/25 08:42:52;;;;;;;7.12;2.65;;;;;;;30.91;30.90;98594.45;2316933;77;20994;-82
2022/06/25 08:45:52;;;;;;;8.85;3.10;;;;;;;30.93;31.04;98594.34;2316864;77;21463;-82
2022/06/25 08:48:53;;;;;;;2.77;2.58;;;;;;;31.08;30.54;98599.06;2315793;77;20970;-81
2022/06/25 08:51:54;;;;;;;3.67;2.70;;;;;;;31.24;30.65;98596.98;2316153;77;20974;-81
2022/06/25 08:54:54;;;;;;;3.00;2.70;;;;;;;31.38;30.81;98598.13;2317188;77;20880;-83
2022/06/25 08:57:54;;;;;;;3.58;2.70;;;;;;;31.61;30.62;98595.85;2317356;77;20884;-82
2022/06/25 09:00:54;;;;;;;5.05;2.92;;;;;;;31.62;29.62;98598.06;2316643;77;21322;-82
2022/06/25 09:03:55;;;;;;;4.30;2.80;;;;;;;31.53;29.74;98600.13;2303541;77;20942;-83
2022/06/25 09:06:55;;;;;;;6.35;2.60;;;;;;;31.62;29.52;98592.17;2304330;77;20960;-83
2022/06/25 09:09:56;;;;;;;5.65;2.47;;;;;;;31.46;29.75;98599.74;2303677;77;20937;-82
2022/06/25 09:12:56;;;;;;;2.83;2.50;;;;;;;31.47;29.20;98593.38;2303603;77;21305;-83
2022/06/25 09:15:56;;;;;;;2.80;2.22;;;;;;;31.61;29.05;98590.45;2303605;77;20937;-82
2022/06/25 09:18:57;;;;;;;41.20;5.85;;;;;;;31.74;28.91;98588.17;2303558;77;20937;-81
2022/06/25 09:21:58;;;;;;;10.82;3.08;;;;;;;31.98;29.27;98588.93;2302772;77;20937;-80
2022/06/25 09:24:58;;;;;;;8.18;2.98;;;;;;;32.18;29.42;98594.97;2302916;77;21409;-81
2022/06/25 09:27:58;;;;;;;13.55;3.12;;;;;;;32.20;28.45;98588.95;2301772;77;20910;-84
2022/06/25 09:30:59;;;;;;;8.30;2.35;;;;;;;32.26;28.48;98588.50;2302052;77;20961;-83
2022/06/25 09:33:59;;;;;;;3.77;2.47;;;;;;;32.22;28.74;98591.05;2302322;77;21406;-84
2022/06/25 09:36:59;;;;;;;3.55;2.40;;;;;;;32.15;28.47;98591.17;2302559;77;20885;-83
2022/06/25 09:40:00;;;;;;;4.05;2.80;;;;;;;32.00;28.16;98588.31;2303290;77;20925;-82
2022/06/25 09:43:00;;;;;;;21.90;3.47;;;;;;;32.02;27.70;98590.89;2302912;77;20984;-80
2022/06/25 09:46:01;;;;;;;4.40;2.60;;;;;;;31.99;27.83;98593.34;2302515;77;20913;-83
2022/06/25 09:49:01;;;;;;;4.45;2.33;;;;;;;31.71;27.34;98590.63;2302374;77;20936;-81
2022/06/25 09:52:01;;;;;;;4.20;2.40;;;;;;;31.66;28.76;98595.49;2302643;77;20949;-83
2022/06/25 09:55:02;;;;;;;5.00;2.58;;;;;;;31.94;28.68;98596.91;2303177;77;20970;-82
2022/06/25 09:58:08;;;;;;;4.70;2.72;;;;;;;32.14;28.46;98593.99;2302859;77;20936;-82
2022/06/25 10:01:09;;;;;;;4.72;2.77;;;;;;;32.34;28.67;98591.06;2303247;77;20937;-82
2022/06/25 10:04:09;;;;;;;29.87;3.92;;;;;;;32.48;29.06;98586.75;2284943;77;20997;-83
2022/06/25 10:07:10;;;;;;;7.35;2.55;;;;;;;32.23;28.36;98590.06;2284095;78;20926;-85
2022/06/25 10:10:10;;;;;;;5.22;2.65;;;;;;;31.50;29.11;98593.13;2284779;78;20919;-81
2022/06/25 10:13:10;;;;;;;2.45;2.25;;;;;;;31.55;29.90;98590.94;2284427;78;20915;-82
2022/06/25 10:16:11;;;;;;;4.33;2.33;;;;;;;31.73;28.79;98591.86;2284446;78;21349;-81
2022/06/25 10:19:12;;;;;;;2.58;2.17;;;;;;;31.91;29.30;98602.55;2284806;78;20923;-82
2022/06/25 10:22:11;;;;;;;4.95;4.12;;;;;;;32.30;28.96;98589.97;2285012;78;20973;-81
2022/06/25 10:25:12;;;;;;;10.35;9.33;;;;;;;32.23;28.39;98590.55;2284803;78;20966;-82
2022/06/25 10:28:12;;;;;;;7.85;7.25;;;;;;;31.99;28.21;98582.06;2284653;78;20939;-82
2022/06/25 10:31:13;;;;;;;6.25;4.28;;;;;;;32.26;28.29;98593.89;2284161;78;20967;-81
2022/06/25 10:34:13;;;;;;;5.83;4.58;;;;;;;32.38;27.42;98590.69;2284721;78;20963;-81
2022/06/25 10:37:14;;;;;;;4.83;3.95;;;;;;;32.39;27.69;98596.95;2285404;78;20997;-82
2022/06/25 10:40:14;;;;;;;5.22;4.83;;;;;;;32.63;27.01;98598.50;2284258;78;20923;-81
2022/06/25 10:43:14;;;;;;;5.60;4.28;;;;;;;32.89;26.29;98593.67;2285112;78;21009;-82
2022/06/25 10:46:15;;;;;;;4.40;3.40;;;;;;;32.84;26.31;98590.49;2284384;78;20903;-81
2022/06/25 10:49:15;;;;;;;5.55;4.95;;;;;;;32.73;26.46;98591.84;2284638;78;21314;-83
2022/06/25 10:52:16;;;;;;;4.12;3.83;;;;;;;32.98;26.60;98574.99;2284905;78;20907;-81
2022/06/25 10:55:17;;;;;;;6.87;5.33;;;;;;;33.17;26.56;98576.50;2285279;78;20950;-83
2022/06/25 10:58:16;;;;;;;3.55;3.25;;;;;;;33.16;26.34;98571.59;2285683;78;20918;-84
2022/06/25 11:01:19;;;;;;;4.10;3.40;;;;;;;32.99;26.30;98577.56;2285978;78;21350;-82
2022/06/25 11:04:19;;;;;;;6.10;2.85;;;;;;;32.53;26.80;98566.47;2270975;78;20998;-84
2022/06/25 11:07:20;;;;;;;4.22;3.92;;;;;;;32.31;27.27;98570.56;2289001;77;20903;-83
2022/06/25 11:10:20;;;;;;;3.87;3.17;;;;;;;32.60;27.10;98567.68;2290222;78;21363;-83
2022/06/25 11:13:21;;;;;;;4.03;3.30;;;;;;;32.62;26.13;98560.80;2289994;78;20971;-82
2022/06/25 11:16:21;;;;;;;4.03;3.72;;;;;;;32.40;26.48;98568.95;2290083;78;20916;-83
2022/06/25 11:19:22;;;;;;;4.00;3.70;;;;;;;32.20;25.62;98571.90;2290149;78;20947;-82
2022/06/25 11:22:22;;;;;;;4.15;3.75;;;;;;;31.82;26.67;98572.23;2290412;78;21718;-83
2022/06/25 11:28:53;;;;;;;4.95;3.08;;;;;;;31.50;26.32;98566.64;2291440;78;20995;-82
2022/06/25 11:31:53;;;;;;;5.45;3.20;;;;;;;31.49;25.85;98564.44;2291620;78;21007;-83
2022/06/25 11:34:54;;;;;;;4.78;2.75;;;;;;;31.93;26.22;98565.50;2291663;78;20909;-82
2022/06/25 11:37:54;;;;;;;6.03;2.60;;;;;;;32.50;26.05;98563.16;2290733;78;20956;-82
2022/06/25 11:40:54;;;;;;;2.77;2.58;;;;;;;32.98;24.71;98561.48;2290990;78;21002;-82
2022/06/25 11:43:55;;;;;;;4.25;2.52;;;;;;;33.20;24.50;98564.08;2291009;78;21372;-81
2022/06/25 11:46:56;;;;;;;3.20;2.90;;;;;;;33.34;24.01;98559.72;2290108;78;20944;-82
2022/06/25 11:49:56;;;;;;;2.77;2.17;;;;;;;32.99;24.08;98557.29;2290349;78;20924;-82
2022/06/25 11:52:56;;;;;;;2.92;2.62;;;;;;;32.43;24.73;98557.90;2290566;78;21316;-80
2022/06/25 11:55:56;;;;;;;3.58;2.60;;;;;;;31.87;25.24;98564.14;2291029;78;20936;-83
2022/06/25 11:58:57;;;;;;;30.80;27.73;;;;;;;31.43;26.10;98560.87;2291112;78;20943;-83
2022/06/25 12:01:59;;;;;;;11.10;10.08;;;;;;;31.18;25.98;98561.02;2290035;78;20972;-81
2022/06/25 12:04:58;;;;;;;5.20;4.72;;;;;;;31.33;27.12;98556.69;2281282;78;20930;-82
2022/06/25 12:07:58;;;;;;;8.43;7.70;;;;;;;32.00;26.56;98550.52;2280808;78;20942;-82
2022/06/25 12:10:58;;;;;;;5.67;4.90;;;;;;;32.46;25.80;98554.95;2280511;78;20965;-83
2022/06/25 12:13:59;;;;;;;50.85;8.15;;;;;;;32.17;26.06;98566.25;2280609;78;20945;-81
2022/06/25 12:16:59;;;;;;;8.15;6.55;;;;;;;32.01;26.88;98556.30;2280594;78;20917;-82
2022/06/25 12:20:00;;;;;;;4.20;3.90;;;;;;;32.11;26.89;98557.30;2280666;78;21045;-82
2022/06/25 12:23:00;;;;;;;9.10;4.75;;;;;;;32.32;26.58;98553.37;2280051;77;20945;-82
2022/06/25 12:26:01;;;;;;;5.05;3.92;;;;;;;32.72;25.64;98554.14;2280365;78;20938;-80
2022/06/25 12:29:01;;;;;;;6.10;4.40;;;;;;;32.99;24.55;98538.36;2280438;78;20891;-82
2022/06/25 12:32:01;;;;;;;5.12;4.58;;;;;;;33.17;24.46;98546.27;2280274;78;20997;-82
2022/06/25 12:35:02;;;;;;;5.60;5.08;;;;;;;33.40;24.59;98547.52;2280123;78;21637;-85
2022/06/25 12:38:03;;;;;;;10.10;2.85;;;;;;;33.43;24.83;98541.34;2280516;78;21322;-84
2022/06/25 12:41:02;;;;;;;4.67;2.67;;;;;;;33.31;25.11;98539.70;2280480;78;21052;-81
2022/06/25 12:44:03;;;;;;;3.40;2.45;;;;;;;33.16;25.30;98536.44;2280936;78;20972;-81
2022/06/25 12:47:03;;;;;;;3.70;2.10;;;;;;;33.04;25.22;98549.65;2281610;78;21298;-84
2022/06/25 12:50:05;;;;;;;4.08;2.60;;;;;;;32.32;25.15;98544.42;2281840;78;20914;-84
2022/06/25 12:53:05;;;;;;;692.25;77.25;;;;;;;31.49;26.15;98545.55;2281886;78;20957;-79
2022/06/25 12:56:04;;;;;;;48.30;5.70;;;;;;;31.11;27.55;98550.30;2281636;78;20950;-81
2022/06/25 12:59:06;;;;;;;3.75;2.22;;;;;;;30.83;27.41;98547.02;2281353;78;20934;-82
2022/06/25 13:02:05;;;;;;;6.20;2.30;;;;;;;30.70;27.96;98543.52;2278879;78;20950;-81
2022/06/25 13:05:06;;;;;;;19.55;3.80;;;;;;;30.54;28.66;98538.39;2249140;78;20964;-80
2022/06/25 13:08:06;;;;;;;10.88;3.47;;;;;;;30.49;28.49;98544.61;2249113;78;20963;-80
2022/06/25 13:11:07;;;;;;;4.83;3.00;;;;;;;30.54;28.60;98542.92;2249047;79;20925;-82
2022/06/25 13:14:07;;;;;;;8.15;3.02;;;;;;;30.36;28.45;98541.96;2249567;78;20972;-80
2022/06/25 13:17:07;;;;;;;4.60;2.50;;;;;;;30.22;29.07;98542.08;2248998;79;20912;-80
2022/06/25 13:20:08;;;;;;;2.77;2.52;;;;;;;30.82;28.52;98539.05;2248895;79;20924;-80
2022/06/25 13:23:09;;;;;;;3.75;2.70;;;;;;;31.26;27.24;98532.52;2249041;79;20999;-83
2022/06/25 13:26:09;;;;;;;2.92;2.55;;;;;;;31.37;27.14;98541.12;2249567;78;20911;-81
2022/06/25 13:29:09;;;;;;;3.55;2.42;;;;;;;31.35;27.77;98541.73;2249142;79;20917;-82
2022/06/25 13:32:09;;;;;;;3.08;2.58;;;;;;;31.36;28.11;98546.14;2250361;78;20912;-84
2022/06/25 13:35:10;;;;;;;8.58;7.78;;;;;;;31.01;27.91;98544.76;2250116;78;20924;-83
2022/06/25 13:38:10;;;;;;;4.20;3.17;;;;;;;30.66;28.46;98546.08;2249624;78;20892;-81
2022/06/25 13:41:11;;;;;;;3.02;2.70;;;;;;;30.63;28.36;98540.92;2249366;78;20948;-81
2022/06/25 13:44:11;;;;;;;3.20;2.60;;;;;;;30.92;28.52;98540.06;2249294;79;21291;-81
2022/06/25 13:47:11;;;;;;;2.85;2.62;;;;;;;31.13;28.06;98539.77;2249329;78;20916;-84
2022/06/25 13:50:12;;;;;;;3.72;2.50;;;;;;;31.49;26.54;98534.77;2249706;78;20916;-83
2022/06/25 13:53:12;;;;;;;3.92;2.50;;;;;;;31.45;26.06;98530.59;2249846;78;20916;-83
2022/06/25 13:56:13;;;;;;;3.47;2.55;;;;;;;31.67;26.78;98525.71;2249784;78;20945;-84
2022/06/25 13:59:13;;;;;;;4.47;2.65;;;;;;;31.53;26.53;98542.98;2250187;78;20917;-86
2022/06/25 14:02:13;;;;;;;4.25;2.55;;;;;;;30.96;27.17;98546.94;2250932;77;20948;-85
2022/06/25 14:05:14;;;;;;;5.42;2.50;;;;;;;30.78;27.69;98541.60;2282221;78;20949;-85
2022/06/25 14:08:15;;;;;;;96.00;82.57;;;;;;;30.61;28.04;98544.22;2282180;78;20906;-84
2022/06/25 14:11:15;;;;;;;81.17;18.55;;;;;;;30.55;28.73;98541.45;2282002;78;20943;-78
2022/06/25 14:14:15;;;;;;;7.42;4.55;;;;;;;30.50;29.08;98540.08;2282049;78;21240;-82
2022/06/25 14:17:16;;;;;;;4.65;3.25;;;;;;;30.38;28.53;98530.59;2282441;77;20926;-83
2022/06/25 14:20:16;;;;;;;2.92;2.72;;;;;;;30.41;28.74;98529.02;2281982;78;20922;-83
2022/06/25 14:23:16;;;;;;;3.25;2.67;;;;;;;30.42;28.45;98528.53;2281827;78;20981;-82